Time;durP1;ratioP1;P1;durP2;ratioP2;P2;SDS_P1;SDS_P2;PMS_P1;PMS_P2;Temp;Humidity;BMP_temperature;BMP_pressure;BME280_temperature;BME280_humidity;BME280_pressure;Samples;Min_cycle;Max_cycle;Signal;HPM_P1;HPM_P2
2021/01/06 00:00:54;;;;;;;7.07;2.80;;;;;;;4.22;59.30;93868.56;5088878;28;20024;-68
2021/01/06 00:03:23;;;;;;;6.65;2.35;;;;;;;4.31;59.06;93868.75;5088857;28;20046;-68
2021/01/06 00:05:57;;;;;;;4.28;1.80;;;;;;;4.49;58.85;93848.88;5088408;28;20115;-69
2021/01/06 00:08:24;;;;;;;5.90;1.60;;;;;;;4.69;57.93;93869.06;5089993;28;20545;-69
2021/01/06 00:10:55;;;;;;;4.05;1.60;;;;;;;4.86;57.41;93856.22;5089753;28;20028;-69
2021/01/06 00:13:21;;;;;;;6.43;2.05;;;;;;;5.01;57.38;93857.97;5089828;28;20036;-68
2021/01/06 00:15:47;;;;;;;5.22;2.20;;;;;;;5.15;56.96;93858.91;5089888;28;20093;-68
2021/01/06 00:18:14;;;;;;;7.90;2.72;;;;;;;5.24;56.37;93851.16;5089493;28;20034;-68
2021/01/06 00:20:40;;;;;;;5.35;2.17;;;;;;;5.34;55.97;93872.19;5089725;28;20035;-69
2021/01/06 00:23:06;;;;;;;6.10;3.08;;;;;;;5.33;55.53;93867.97;5089671;28;20036;-69
2021/01/06 00:25:34;;;;;;;12.10;3.25;;;;;;;5.26;56.05;93862.22;5089404;28;20109;-69
2021/01/06 00:28:01;;;;;;;12.00;3.78;;;;;;;5.26;56.59;93879.94;5088230;28;20019;-69
2021/01/06 00:30:33;;;;;;;16.75;5.40;;;;;;;5.05;56.74;93884.59;5088332;28;20027;-69
2021/01/06 00:32:59;;;;;;;13.90;6.93;;;;;;;4.85;57.81;93859.16;5089903;28;20024;-69
2021/01/06 00:35:25;;;;;;;18.52;7.22;;;;;;;4.92;57.73;93900.03;5089581;28;20028;-68
2021/01/06 00:37:51;;;;;;;17.92;8.68;;;;;;;4.98;57.58;93891.00;5089672;28;20396;-69
2021/01/06 00:40:18;;;;;;;19.58;8.02;;;;;;;4.96;57.89;93874.63;5087703;28;20028;-69
2021/01/06 00:42:44;;;;;;;22.58;8.75;;;;;;;4.93;58.11;93906.13;5089457;28;20052;-69
2021/01/06 00:45:13;;;;;;;29.45;10.40;;;;;;;4.50;59.22;93924.34;5089143;28;20065;-70
2021/01/06 00:47:41;;;;;;;21.50;9.07;;;;;;;4.41;59.70;93900.38;5089435;28;20103;-70
2021/01/06 00:50:07;;;;;;;14.85;7.95;;;;;;;4.37;60.00;93920.44;5089595;28;20031;-71
2021/01/06 00:52:33;;;;;;;21.77;8.85;;;;;;;4.07;60.77;93909.00;5088897;28;20043;-71
2021/01/06 00:54:58;;;;;;;18.40;8.98;;;;;;;4.06;61.13;93919.81;5089136;28;20032;-71
2021/01/06 00:57:23;;;;;;;17.73;8.20;;;;;;;4.08;61.43;93923.75;5087911;28;20561;-71
2021/01/06 00:59:49;;;;;;;17.67;7.63;;;;;;;4.10;61.12;93915.56;5088996;28;20107;-71
2021/01/06 01:02:14;;;;;;;16.52;7.28;;;;;;;4.11;61.28;93890.75;5089349;28;20032;-71
2021/01/06 01:04:39;;;;;;;16.50;7.15;;;;;;;4.09;61.04;93930.63;5089068;28;20535;-70
2021/01/06 01:07:05;;;;;;;19.67;8.07;;;;;;;3.78;62.03;93920.16;5089136;28;20027;-70
2021/01/06 01:09:30;;;;;;;14.93;7.88;;;;;;;3.76;62.13;93918.84;5088970;28;20126;-70
2021/01/06 01:11:56;;;;;;;15.88;6.93;;;;;;;3.75;61.97;93904.13;5070848;28;20388;-70
2021/01/06 01:14:21;;;;;;;18.88;7.82;;;;;;;3.74;62.62;93924.38;5072825;28;20031;-70
2021/01/06 01:16:49;;;;;;;15.45;6.50;;;;;;;3.84;61.95;93897.22;5072499;28;20521;-71
2021/01/06 01:19:14;;;;;;;20.42;7.22;;;;;;;3.72;62.67;93917.81;5072664;28;20039;-70
2021/01/06 01:21:40;;;;;;;18.42;8.50;;;;;;;3.71;62.50;93914.41;5072221;28;20021;-71
2021/01/06 01:24:07;;;;;;;15.00;6.63;;;;;;;3.70;62.72;93894.34;5072763;28;20484;-71
2021/01/06 01:26:33;;;;;;;15.75;6.70;;;;;;;3.72;62.71;93910.69;5071013;28;20024;-71
2021/01/06 01:28:58;;;;;;;15.38;6.65;;;;;;;3.73;62.40;93895.69;5072586;28;20024;-71
2021/01/06 01:31:32;;;;;;;14.25;6.70;;;;;;;3.73;62.70;93907.00;5072458;28;20039;-71
2021/01/06 01:33:57;;;;;;;17.45;7.45;;;;;;;3.80;62.75;93907.50;5070818;28;20016;-70
2021/01/06 01:36:23;;;;;;;18.15;5.90;;;;;;;3.85;62.35;93904.06;5072330;28;20028;-71
2021/01/06 01:38:48;;;;;;;19.77;7.00;;;;;;;3.88;62.32;93890.34;5072267;28;20016;-71
2021/01/06 01:41:20;;;;;;;14.82;5.85;;;;;;;3.85;62.08;93898.00;5089765;28;20086;-70
2021/01/06 01:43:45;;;;;;;16.27;6.53;;;;;;;3.76;62.28;93906.44;5091046;28;20027;-71
2021/01/06 01:46:20;;;;;;;15.48;6.63;;;;;;;3.74;62.38;93905.94;5092489;28;20415;-71
2021/01/06 01:48:49;;;;;;;20.30;7.13;;;;;;;3.73;62.79;93904.38;5092115;28;20046;-71
2021/01/06 01:51:39;;;;;;;14.02;6.38;;;;;;;3.77;62.91;93913.31;5092289;28;20031;-70
2021/01/06 01:54:11;;;;;;;15.02;6.13;;;;;;;3.86;62.24;93897.72;5090542;28;20054;-71
2021/01/06 01:56:42;;;;;;;;;;;;;;;3.77;62.42;93899.34;5092998;28;20027;-70
2021/01/06 01:59:15;;;;;;;20.48;7.07;;;;;;;3.68;62.88;93893.81;5092010;28;19919;-70
2021/01/06 02:01:40;;;;;;;16.95;7.32;;;;;;;3.55;63.09;93889.13;5092461;28;20027;-71
2021/01/06 02:04:16;;;;;;;18.98;8.52;;;;;;;3.42;63.62;93890.50;5092038;28;20101;-70
2021/01/06 02:06:54;;;;;;;18.95;7.90;;;;;;;3.37;64.33;93891.28;5092320;28;20399;-70
2021/01/06 02:09:55;;;;;;;17.80;8.23;;;;;;;3.38;64.69;93881.56;5090149;28;20020;-70
2021/01/06 02:12:46;;;;;;;16.27;8.10;;;;;;;3.36;64.47;93889.72;5069772;28;20082;-70
2021/01/06 02:15:17;;;;;;;22.55;8.73;;;;;;;3.38;64.36;93889.44;5090519;28;20048;-70
2021/01/06 02:17:43;;;;;;;23.40;9.32;;;;;;;3.36;64.76;93904.75;5090684;28;20055;-70
2021/01/06 02:20:19;;;;;;;18.05;8.30;;;;;;;3.39;64.33;93881.25;5091585;28;20403;-70
2021/01/06 02:22:45;;;;;;;22.58;8.73;;;;;;;3.43;64.61;93884.16;5089701;28;20507;-70
2021/01/06 02:25:11;;;;;;;18.75;8.90;;;;;;;3.58;64.44;93891.22;5090253;28;20066;-70
2021/01/06 02:27:37;;;;;;;17.70;8.73;;;;;;;3.60;63.95;93887.28;5091937;28;20495;-70
2021/01/06 02:30:04;;;;;;;26.05;8.90;;;;;;;3.64;63.70;93881.47;5091941;28;20102;-70
2021/01/06 02:32:30;;;;;;;20.02;8.40;;;;;;;3.66;64.17;93877.50;5091498;28;20107;-70
2021/01/06 02:34:55;;;;;;;20.10;9.77;;;;;;;3.61;63.92;93885.44;5090370;28;20115;-70
2021/01/06 02:37:21;;;;;;;17.55;8.18;;;;;;;3.56;64.15;93885.44;5091445;28;20039;-70
2021/01/06 02:39:49;;;;;;;20.75;8.43;;;;;;;3.56;64.24;93885.44;5090231;28;20019;-70
2021/01/06 02:42:15;;;;;;;24.58;9.13;;;;;;;3.57;64.60;93872.00;5090242;28;20040;-70
2021/01/06 02:44:41;;;;;;;26.20;10.45;;;;;;;3.56;64.73;93886.25;5091517;28;20024;-70
2021/01/06 02:47:06;;;;;;;27.25;9.88;;;;;;;3.61;64.07;93886.22;5091359;28;20073;-70
2021/01/06 02:49:32;;;;;;;21.67;9.75;;;;;;;3.63;64.01;93874.63;5091154;28;20103;-70
2021/01/06 02:52:11;;;;;;;25.27;11.25;;;;;;;3.66;63.89;93869.59;5091575;28;20499;-70
2021/01/06 02:54:40;;;;;;;26.08;10.13;;;;;;;3.67;64.15;93871.19;5089796;28;20462;-70
2021/01/06 02:57:07;;;;;;;20.85;9.88;;;;;;;3.72;64.14;93857.97;5091240;28;20024;-70
2021/01/06 02:59:42;;;;;;;19.38;9.60;;;;;;;3.73;64.32;93862.19;5090827;28;20058;-70
2021/01/06 03:02:19;;;;;;;24.50;10.13;;;;;;;3.81;64.24;93860.84;5091353;28;20036;-70
2021/01/06 03:04:59;;;;;;;18.60;9.50;;;;;;;3.82;63.73;93855.28;5090984;28;20106;-70
2021/01/06 03:07:27;;;;;;;25.30;8.95;;;;;;;3.85;63.86;93871.63;5090966;28;20031;-70
2021/01/06 03:09:52;;;;;;;24.95;11.02;;;;;;;3.84;63.53;93855.03;5089567;28;20030;-71
2021/01/06 03:12:27;;;;;;;28.25;10.10;;;;;;;3.81;64.13;93855.56;5089517;28;20036;-71
2021/01/06 03:14:53;;;;;;;25.50;11.23;;;;;;;3.79;64.04;93852.41;5090815;28;20063;-71
2021/01/06 03:17:19;;;;;;;21.13;10.02;;;;;;;3.63;64.35;93843.78;5090826;28;20052;-71
2021/01/06 03:19:52;;;;;;;24.08;10.80;;;;;;;3.65;64.55;93843.53;5090819;28;20027;-71
2021/01/06 03:22:21;;;;;;;27.73;12.10;;;;;;;3.51;64.64;93843.28;5090808;28;20017;-71
2021/01/06 03:24:53;;;;;;;32.83;12.40;;;;;;;3.45;64.90;93847.00;5090475;28;20024;-70
2021/01/06 03:27:21;;;;;;;28.15;12.13;;;;;;;3.47;65.04;93858.06;5089380;28;20024;-70
2021/01/06 03:29:47;;;;;;;31.02;11.93;;;;;;;3.53;65.24;93859.63;5089100;28;20035;-70
2021/01/06 03:32:24;;;;;;;26.55;12.35;;;;;;;3.57;65.27;93840.38;5090515;28;20023;-70
2021/01/06 03:35:02;;;;;;;35.95;12.80;;;;;;;3.62;64.98;93836.91;5090134;28;20466;-70
2021/01/06 03:37:45;;;;;;;29.08;13.63;;;;;;;3.67;65.10;93842.19;5090391;28;20086;-70
2021/01/06 03:40:25;;;;;;;33.70;13.80;;;;;;;3.76;64.77;93855.59;5090137;28;20038;-70
2021/01/06 03:42:51;;;;;;;31.88;13.07;;;;;;;3.82;64.48;93862.41;5088752;28;20035;-70
2021/01/06 03:45:21;;;;;;;27.75;12.80;;;;;;;3.84;64.01;93862.94;5089170;28;20479;-70
2021/01/06 03:47:56;;;;;;;28.45;13.00;;;;;;;3.82;64.01;93847.38;5068657;28;20024;-71
2021/01/06 03:50:41;;;;;;;28.48;11.50;;;;;;;3.73;64.27;93848.22;5089256;28;20059;-71
2021/01/06 03:53:23;;;;;;;36.25;13.88;;;;;;;3.73;64.35;93854.28;5089904;28;20067;-71
2021/01/06 03:55:59;;;;;;;24.48;11.82;;;;;;;3.54;65.06;93843.56;5088700;28;20028;-70
2021/01/06 03:58:30;;;;;;;29.45;12.15;;;;;;;3.48;64.95;93863.06;5090018;28;20028;-71
2021/01/06 04:01:16;;;;;;;26.75;12.13;;;;;;;3.39;65.40;93860.19;5089935;28;20031;-71
2021/01/06 04:03:58;;;;;;;30.90;12.35;;;;;;;3.45;65.42;93871.50;5089984;28;20411;-70
2021/01/06 04:06:28;;;;;;;32.57;13.57;;;;;;;3.52;65.53;93863.31;5089728;28;20032;-70
2021/01/06 04:08:59;;;;;;;35.60;13.38;;;;;;;3.51;65.21;93857.25;5088606;28;20093;-70
2021/01/06 04:11:30;;;;;;;30.92;12.25;;;;;;;3.51;64.70;93867.78;5089756;28;20549;-70
2021/01/06 04:13:57;;;;;;;29.15;13.07;;;;;;;3.38;65.00;93874.44;5090133;28;20024;-70
2021/01/06 04:16:23;;;;;;;27.88;12.70;;;;;;;3.37;65.11;93883.38;5089785;28;20023;-70
2021/01/06 04:18:49;;;;;;;25.13;12.68;;;;;;;3.44;65.50;93882.31;5089473;28;20369;-70
2021/01/06 04:21:14;;;;;;;30.27;12.60;;;;;;;3.47;65.15;93887.06;5089719;28;20035;-70
2021/01/06 04:23:40;;;;;;;26.13;11.85;;;;;;;3.46;65.40;93891.53;5088328;28;20031;-69
2021/01/06 04:26:06;;;;;;;29.92;12.30;;;;;;;3.49;64.80;93895.47;5089759;28;20032;-69
2021/01/06 04:28:36;;;;;;;32.92;13.55;;;;;;;3.53;64.92;93907.06;5089729;28;20036;-69
2021/01/06 04:31:04;;;;;;;27.13;12.40;;;;;;;3.45;65.10;93900.50;5088388;28;20441;-70
2021/01/06 04:33:36;;;;;;;28.50;12.57;;;;;;;3.40;65.37;93893.38;5090028;28;20032;-70
2021/01/06 04:36:10;;;;;;;28.92;12.10;;;;;;;3.39;65.32;93902.34;5088299;28;20441;-70
2021/01/06 04:38:38;;;;;;;31.92;11.88;;;;;;;3.38;65.78;93900.78;5089617;28;20423;-70
2021/01/06 04:41:16;;;;;;;28.83;11.68;;;;;;;3.44;65.21;93887.56;5089277;28;20032;-69
2021/01/06 04:43:49;;;;;;;25.75;11.25;;;;;;;3.39;65.38;93902.34;5089256;28;20028;-69
2021/01/06 04:46:39;;;;;;;22.85;9.90;;;;;;;3.33;65.02;93900.78;5090241;28;20222;-69
2021/01/06 04:49:04;;;;;;;25.23;10.43;;;;;;;3.34;65.18;93889.19;5093408;28;20032;-69
2021/01/06 04:51:41;;;;;;;23.33;10.50;;;;;;;3.41;65.49;93896.81;5092200;28;20402;-69
2021/01/06 04:54:18;;;;;;;26.98;11.73;;;;;;;3.39;65.95;93869.94;5093242;28;20059;-69
2021/01/06 04:57:14;;;;;;;26.83;10.23;;;;;;;3.47;65.36;93879.16;5092234;28;20492;-70
2021/01/06 04:59:43;;;;;;;21.10;9.45;;;;;;;3.33;65.81;93889.44;5093236;28;20031;-70
2021/01/06 05:02:34;;;;;;;23.23;9.90;;;;;;;3.31;65.67;93889.72;5092078;28;20032;-70
2021/01/06 05:05:34;;;;;;;20.73;10.20;;;;;;;3.37;65.89;93887.84;5093154;28;20122;-70
2021/01/06 05:08:46;;;;;;;21.95;9.40;;;;;;;3.38;65.88;93869.16;5091835;28;20085;-70
2021/01/06 05:11:23;;;;;;;16.73;8.80;;;;;;;3.39;64.76;93897.06;5089887;28;20039;-70
2021/01/06 05:13:49;;;;;;;21.95;10.52;;;;;;;3.19;65.63;93876.03;5093384;28;20062;-70
2021/01/06 05:16:16;;;;;;;27.30;10.55;;;;;;;3.35;66.01;93893.38;5091627;28;20068;-70
2021/01/06 05:18:43;;;;;;;19.80;9.57;;;;;;;3.47;65.00;93877.28;5092867;28;20036;-70
2021/01/06 05:21:25;;;;;;;24.55;10.20;;;;;;;3.56;64.54;93882.78;5092846;28;20024;-70
2021/01/06 05:23:56;;;;;;;23.05;10.23;;;;;;;3.62;64.14;93868.53;5091671;28;20038;-70
2021/01/06 05:26:22;;;;;;;23.80;10.27;;;;;;;3.63;64.55;93872.78;5091576;28;20500;-70
2021/01/06 05:28:48;;;;;;;21.88;8.95;;;;;;;3.63;64.06;93864.88;5092826;28;20103;-69
2021/01/06 05:31:14;;;;;;;16.20;8.63;;;;;;;3.50;64.49;93850.41;5093118;28;20028;-71
2021/01/06 05:33:44;;;;;;;19.10;10.10;;;;;;;3.60;64.82;93886.47;5093252;28;20032;-70
2021/01/06 05:36:15;;;;;;;21.60;9.07;;;;;;;3.67;63.89;93881.72;5092742;28;20071;-70
2021/01/06 05:38:41;;;;;;;16.63;8.23;;;;;;;3.68;62.23;93877.22;5092494;28;20024;-70
2021/01/06 05:41:06;;;;;;;17.67;8.20;;;;;;;3.77;62.83;93886.97;5092514;28;20036;-70
2021/01/06 05:43:53;;;;;;;13.40;6.40;;;;;;;3.66;62.82;93901.22;5092464;28;20038;-70
2021/01/06 05:46:46;;;;;;;20.65;8.90;;;;;;;3.63;63.02;93906.25;5092457;28;20032;-70
2021/01/06 05:49:31;;;;;;;24.98;9.18;;;;;;;3.53;63.76;93907.06;5091053;28;20134;-70
2021/01/06 05:52:01;;;;;;;21.42;9.95;;;;;;;3.50;63.98;93902.31;5092600;28;20505;-70
2021/01/06 05:54:48;;;;;;;23.80;10.48;;;;;;;3.33;64.17;93911.31;5090935;28;20141;-70
2021/01/06 05:57:38;;;;;;;24.42;9.27;;;;;;;3.31;64.24;93900.25;5092457;28;20479;-70
2021/01/06 06:00:14;;;;;;;29.95;10.18;;;;;;;3.34;64.84;93915.53;5092273;28;20055;-69
2021/01/06 06:02:49;;;;;;;26.27;9.18;;;;;;;3.35;64.40;93901.28;5090866;28;20032;-69
2021/01/06 06:05:34;;;;;;;18.38;8.23;;;;;;;3.44;64.72;93927.09;5091028;28;20066;-69
2021/01/06 06:08:36;;;;;;;15.68;6.68;;;;;;;3.47;62.76;93916.03;5092205;28;20028;-69
2021/01/06 06:11:26;;;;;;;16.85;7.80;;;;;;;3.60;63.12;93912.84;5091999;28;20047;-69
2021/01/06 06:14:13;;;;;;;27.02;8.93;;;;;;;3.69;62.91;93923.63;5090565;28;20024;-69
2021/01/06 06:17:11;;;;;;;17.00;8.27;;;;;;;3.65;62.77;93912.06;5091767;28;20043;-69
2021/01/06 06:20:28;;;;;;;21.45;9.13;;;;;;;3.73;63.19;93907.00;5091746;28;20107;-69
2021/01/06 06:23:29;;;;;;;23.13;9.13;;;;;;;3.86;63.14;93915.41;5091919;28;20031;-69
2021/01/06 06:26:25;;;;;;;19.88;7.72;;;;;;;3.86;62.34;93910.91;5090193;28;20374;-70
2021/01/06 06:29:00;;;;;;;20.45;7.60;;;;;;;3.91;62.48;93907.47;5090279;28;20028;-70
2021/01/06 06:31:33;;;;;;;17.73;8.80;;;;;;;3.91;62.47;93912.72;5091726;28;20028;-70
2021/01/06 06:34:02;;;;;;;19.35;8.75;;;;;;;3.96;62.91;93926.69;5091439;28;20107;-70
2021/01/06 06:36:31;;;;;;;20.38;8.90;;;;;;;4.01;62.57;93907.44;5090325;28;20168;-70
2021/01/06 06:39:01;;;;;;;18.38;8.70;;;;;;;4.09;62.36;93925.34;5091315;28;20028;-71
2021/01/06 06:41:34;;;;;;;21.02;8.85;;;;;;;4.21;61.12;93925.00;5091437;28;20102;-71
2021/01/06 06:44:20;;;;;;;22.15;7.25;;;;;;;4.05;61.39;93934.03;5091331;28;20032;-71
2021/01/06 06:46:45;;;;;;;23.92;8.38;;;;;;;3.91;62.09;93944.38;5090211;28;20059;-71
2021/01/06 06:49:10;;;;;;;19.10;8.75;;;;;;;3.87;62.19;93943.34;5091099;28;20526;-71
2021/01/06 06:51:39;;;;;;;19.48;8.60;;;;;;;3.81;62.50;93927.53;5091198;28;20410;-71
2021/01/06 06:54:18;;;;;;;52.13;12.00;;;;;;;3.59;63.31;93958.72;5090720;28;20051;-70
2021/01/06 06:56:59;;;;;;;22.55;9.70;;;;;;;3.50;63.49;93961.09;5091308;28;20165;-70
2021/01/06 06:59:49;;;;;;;25.33;10.45;;;;;;;3.39;63.76;93949.75;5090824;28;20023;-70
2021/01/06 07:02:16;;;;;;;20.67;9.38;;;;;;;3.44;64.11;93956.09;5089451;28;20036;-71
2021/01/06 07:04:54;;;;;;;23.75;9.73;;;;;;;3.47;63.94;93958.97;5089768;28;20024;-70
2021/01/06 07:07:36;;;;;;;23.50;8.68;;;;;;;3.41;63.29;93955.56;5090571;28;20384;-70
2021/01/06 07:10:32;;;;;;;19.23;7.85;;;;;;;3.45;63.90;93932.09;5090354;28;20024;-70
2021/01/06 07:13:07;;;;;;;23.23;10.25;;;;;;;3.62;63.83;93947.63;5089951;28;20388;-70
2021/01/06 07:15:37;;;;;;;24.05;10.60;;;;;;;3.78;63.39;93962.34;5090550;28;20035;-70
2021/01/06 07:18:21;;;;;;;25.08;9.90;;;;;;;3.92;63.17;93957.31;5090402;28;20024;-70
2021/01/06 07:20:47;;;;;;;24.48;9.60;;;;;;;4.02;62.95;93941.44;5090388;28;20437;-70
2021/01/06 07:23:22;;;;;;;24.95;9.85;;;;;;;4.10;62.74;93945.38;5089005;28;20068;-69
2021/01/06 07:26:01;;;;;;;24.88;10.75;;;;;;;4.29;62.06;93965.88;5089179;28;20050;-70
2021/01/06 07:28:27;;;;;;;22.92;10.13;;;;;;;4.37;61.40;93946.84;5090384;28;20050;-70
2021/01/06 07:30:53;;;;;;;36.72;14.48;;;;;;;4.48;61.24;93974.78;5090348;28;20024;-71
2021/01/06 07:33:35;;;;;;;34.28;14.88;;;;;;;4.64;60.40;93972.84;5090580;28;20054;-70
2021/01/06 07:36:09;;;;;;;29.03;11.60;;;;;;;4.54;60.52;93963.13;5090356;28;20027;-71
2021/01/06 07:38:35;;;;;;;39.03;11.27;;;;;;;4.39;60.89;93955.28;5088895;28;21118;-71
2021/01/06 07:41:01;;;;;;;31.02;13.07;;;;;;;4.34;61.31;93963.22;5088779;28;20024;-71
2021/01/06 07:43:30;;;;;;;30.15;11.98;;;;;;;4.37;61.50;93991.69;5088766;28;20076;-70
2021/01/06 07:46:03;;;;;;;23.38;11.43;;;;;;;4.34;61.16;93984.34;5088848;28;20020;-70
2021/01/06 07:48:43;;;;;;;25.95;12.48;;;;;;;4.33;61.36;93995.94;5090194;28;20458;-70
2021/01/06 07:51:22;;;;;;;31.35;14.10;;;;;;;4.37;63.83;93967.94;5085168;28;20505;-61
2021/01/06 07:54:08;;;;;;;37.85;14.65;;;;;;;4.54;63.16;94008.00;5080333;28;20114;-62
2021/01/06 07:56:40;;;;;;;24.40;11.13;;;;;;;4.56;62.55;93994.50;5083325;28;20036;-60
2021/01/06 07:59:20;;;;;;;32.35;11.23;;;;;;;4.73;62.88;93996.81;5087057;28;20065;-73
2021/01/06 08:01:53;;;;;;;21.65;11.43;;;;;;;4.75;60.26;94010.53;5069419;28;20028;-70
2021/01/06 08:04:25;;;;;;;20.20;9.60;;;;;;;4.74;60.52;93977.25;5105078;28;20108;-70
2021/01/06 08:06:54;;;;;;;26.38;11.63;;;;;;;4.89;60.20;94003.59;5089506;28;20032;-70
2021/01/06 08:09:38;;;;;;;23.20;9.27;;;;;;;5.14;59.21;93981.50;5089693;28;20024;-70
2021/01/06 08:12:37;;;;;;;21.20;9.13;;;;;;;5.30;57.75;93991.97;5088735;28;20107;-70
2021/01/06 08:15:17;;;;;;;20.17;8.88;;;;;;;5.42;57.41;93987.09;5085350;28;20016;-70
2021/01/06 08:17:56;;;;;;;16.73;8.57;;;;;;;5.60;57.46;93990.91;5087120;28;20107;-70
2021/01/06 08:20:28;;;;;;;18.88;8.55;;;;;;;5.79;56.48;94007.66;5088035;28;20411;-69
2021/01/06 08:22:58;;;;;;;27.17;9.90;;;;;;;5.92;56.68;93978.97;5074187;28;20495;-69
2021/01/06 08:25:31;;;;;;;26.95;10.05;;;;;;;6.09;58.42;94012.97;5081829;28;20036;-69
2021/01/06 08:27:56;;;;;;;26.20;9.70;;;;;;;6.22;57.42;94031.59;5089251;28;20107;-69
2021/01/06 08:30:28;;;;;;;37.78;11.00;;;;;;;6.21;58.62;93997.50;5088856;28;20107;-69
2021/01/06 08:33:20;;;;;;;29.00;11.98;;;;;;;6.50;55.51;94021.25;5087073;28;20514;-69
2021/01/06 08:35:50;;;;;;;28.80;12.48;;;;;;;6.51;55.78;94012.22;5086592;28;20036;-70
2021/01/06 08:38:33;;;;;;;29.35;12.70;;;;;;;6.53;55.27;94006.66;5088890;28;20506;-68
2021/01/06 08:41:17;;;;;;;30.88;12.43;;;;;;;6.68;55.47;94018.94;5089095;28;20110;-69
2021/01/06 08:43:43;;;;;;;24.80;12.40;;;;;;;6.69;54.27;94001.94;5078636;28;20024;-69
2021/01/06 08:46:20;;;;;;;24.50;11.60;;;;;;;6.84;54.92;94009.72;5068896;28;20108;-69
2021/01/06 08:48:46;;;;;;;27.17;10.93;;;;;;;7.10;52.63;94025.25;5087342;28;20039;-69
2021/01/06 08:51:13;;;;;;;29.00;12.38;;;;;;;7.28;52.35;94000.59;5069098;28;20032;-69
2021/01/06 08:53:42;;;;;;;25.05;10.90;;;;;;;7.37;52.60;94001.53;5068864;28;20056;-69
2021/01/06 08:56:10;;;;;;;24.50;12.25;;;;;;;7.42;52.53;94021.88;5068619;28;20399;-70
2021/01/06 08:59:24;;;;;;;29.13;11.73;;;;;;;7.42;52.47;93990.03;5069072;28;20078;-72
2021/01/06 09:01:54;;;;;;;28.67;11.52;;;;;;;7.54;52.91;93994.91;5029884;28;20064;-71
2021/01/06 09:04:36;;;;;;;26.33;11.68;;;;;;;7.86;52.60;94003.91;5071194;28;20067;-72
2021/01/06 09:07:25;;;;;;;27.33;12.05;;;;;;;8.16;52.65;93991.97;5074848;28;20029;-72
2021/01/06 09:10:13;;;;;;;22.38;12.10;;;;;;;8.47;51.00;94010.00;5103799;28;20032;-71
2021/01/06 09:12:38;;;;;;;22.30;11.18;;;;;;;8.65;50.42;93982.56;5077397;28;20028;-71
2021/01/06 09:15:15;;;;;;;29.10;11.82;;;;;;;8.74;50.38;93979.97;5074526;28;20035;-71
2021/01/06 09:17:51;;;;;;;21.27;11.18;;;;;;;9.02;49.34;93989.47;5087489;28;20447;-72
2021/01/06 09:20:25;;;;;;;16.50;8.50;;;;;;;9.19;45.88;93996.00;5082765;28;20039;-71
2021/01/06 09:22:51;;;;;;;15.25;7.20;;;;;;;9.16;46.16;93988.63;5080465;28;20111;-71
2021/01/06 09:25:27;;;;;;;17.05;7.97;;;;;;;9.26;45.89;93985.75;5071922;28;20574;-72
2021/01/06 09:27:56;;;;;;;31.42;8.52;;;;;;;9.33;46.20;93975.47;5074470;28;20067;-72
2021/01/06 09:30:27;;;;;;;20.70;8.00;;;;;;;9.41;46.46;93961.44;5075925;28;20028;-71
2021/01/06 09:32:55;;;;;;;20.90;8.73;;;;;;;9.48;46.10;93954.91;5103792;28;20031;-71
2021/01/06 09:35:26;;;;;;;20.52;9.73;;;;;;;9.47;46.79;93956.78;5084197;28;20050;-71
2021/01/06 09:38:08;;;;;;;21.47;9.17;;;;;;;9.56;46.82;93964.81;5082280;28;20044;-71
2021/01/06 09:40:36;;;;;;;20.25;9.63;;;;;;;9.61;46.79;93962.06;5090406;28;20032;-71
2021/01/06 09:43:07;;;;;;;22.10;9.30;;;;;;;9.37;46.88;93952.50;5079859;28;20364;-71
2021/01/06 09:45:33;;;;;;;19.00;9.23;;;;;;;9.51;46.60;93952.44;5084380;28;20023;-71
2021/01/06 09:48:05;;;;;;;25.45;10.07;;;;;;;9.61;46.65;93951.41;5076848;28;20043;-71
2021/01/06 09:50:53;;;;;;;22.42;9.85;;;;;;;9.62;46.66;93952.97;5107272;28;20040;-71
2021/01/06 09:53:25;;;;;;;27.35;9.85;;;;;;;9.65;45.99;93952.38;5081337;28;20059;-70
2021/01/06 09:55:53;;;;;;;33.55;10.48;;;;;;;9.63;45.82;93927.94;5079183;28;20141;-73
2021/01/06 09:58:19;;;;;;;30.33;10.68;;;;;;;9.63;46.63;93923.41;5084710;28;20483;-71
2021/01/06 10:00:55;;;;;;;32.65;11.23;;;;;;;9.76;45.84;93921.72;5075786;28;20078;-71
2021/01/06 10:03:20;;;;;;;30.67;10.13;;;;;;;9.76;45.79;93902.31;5082114;28;20035;-71
2021/01/06 10:05:51;;;;;;;24.75;10.93;;;;;;;9.79;46.59;93899.84;5080642;28;20020;-70
2021/01/06 10:08:59;;;;;;;31.65;10.40;;;;;;;9.93;46.21;93904.28;5087830;28;20024;-71
2021/01/06 10:11:58;;;;;;;27.50;10.40;;;;;;;10.01;46.05;93911.50;5070223;28;20035;-72
2021/01/06 10:14:46;;;;;;;18.50;9.60;;;;;;;10.13;46.10;93898.38;5091771;28;20032;-72
2021/01/06 10:17:28;;;;;;;27.25;9.65;;;;;;;10.22;46.47;93890.44;5083039;28;20032;-72
2021/01/06 10:20:08;;;;;;;20.08;9.40;;;;;;;10.28;45.32;93893.72;5082678;28;20095;-71
2021/01/06 10:22:34;;;;;;;24.55;8.18;;;;;;;10.40;44.65;93912.59;5087400;28;20035;-71
2021/01/06 10:25:33;;;;;;;22.10;7.35;;;;;;;10.36;43.36;93891.13;5085958;28;20028;-71
2021/01/06 10:28:21;;;;;;;20.85;7.78;;;;;;;10.41;43.47;93890.19;5075098;28;20113;-71
2021/01/06 10:31:07;;;;;;;23.45;8.30;;;;;;;10.40;43.15;93897.41;5072732;28;20903;-72
2021/01/06 10:33:35;;;;;;;23.38;7.95;;;;;;;10.30;44.02;93881.72;5080516;28;20058;-72
2021/01/06 10:36:14;;;;;;;23.27;7.72;;;;;;;10.08;45.15;93877.22;5075770;28;20028;-71
2021/01/06 10:38:42;;;;;;;20.02;7.57;;;;;;;10.16;44.39;93881.81;5085303;28;20031;-73
2021/01/06 10:41:26;;;;;;;26.40;6.85;;;;;;;10.28;43.36;93889.19;5089650;28;20020;-72
2021/01/06 10:43:56;;;;;;;19.60;5.85;;;;;;;10.33;42.68;93874.97;5072551;28;20059;-72
2021/01/06 10:46:36;;;;;;;13.48;6.25;;;;;;;10.25;43.71;93871.16;5086999;28;20024;-72
2021/01/06 10:49:05;;;;;;;27.38;7.22;;;;;;;10.31;43.60;93863.84;5076460;28;20091;-73
2021/01/06 10:51:49;;;;;;;20.13;6.25;;;;;;;10.31;43.24;93853.19;5085321;28;20024;-68
2021/01/06 10:54:19;;;;;;;15.98;7.07;;;;;;;10.09;43.91;93841.50;5086107;28;20055;-68
2021/01/06 10:56:45;;;;;;;18.08;6.28;;;;;;;9.79;45.02;93824.50;5069319;28;20048;-65
2021/01/06 10:59:15;;;;;;;19.20;6.57;;;;;;;9.97;45.41;93814.69;5088208;28;20032;-68
2021/01/06 11:01:53;;;;;;;17.48;6.25;;;;;;;10.18;45.86;93814.91;5090742;28;20085;-67
2021/01/06 11:04:29;;;;;;;16.73;7.05;;;;;;;10.33;44.17;93821.69;5090706;28;20024;-68
2021/01/06 11:07:12;;;;;;;18.33;7.10;;;;;;;10.42;43.63;93814.47;5090617;28;20134;-68
2021/01/06 11:09:48;;;;;;;18.45;7.70;;;;;;;10.47;44.69;93806.34;5090713;28;20455;-68
2021/01/06 11:12:53;;;;;;;26.02;7.60;;;;;;;10.49;44.90;93793.50;5088662;28;20028;-67
2021/01/06 11:15:56;;;;;;;25.02;7.70;;;;;;;10.56;44.93;93793.00;5051313;28;20518;-69
2021/01/06 11:18:21;;;;;;;20.17;7.63;;;;;;;10.60;44.48;93784.09;5103840;28;20074;-66
2021/01/06 11:21:10;;;;;;;19.52;6.10;;;;;;;10.63;44.54;93796.00;5077424;28;20029;-67
2021/01/06 11:23:42;;;;;;;14.65;5.82;;;;;;;10.73;44.69;93800.25;5083698;28;20024;-67
2021/01/06 11:26:32;;;;;;;24.27;5.40;;;;;;;10.85;44.01;93776.38;5081988;28;20068;-69
2021/01/06 11:29:15;;;;;;;26.15;5.72;;;;;;;10.95;44.64;93788.59;5086741;28;20031;-68
2021/01/06 11:32:02;;;;;;;14.65;4.22;;;;;;;11.05;44.05;93793.59;5076493;28;20036;-68
2021/01/06 11:34:33;;;;;;;11.98;4.43;;;;;;;11.17;43.50;93782.25;5072891;28;20715;-70
2021/01/06 11:37:00;;;;;;;8.13;3.33;;;;;;;11.25;43.27;93749.44;5076483;28;20032;-69
2021/01/06 11:39:43;;;;;;;10.80;3.80;;;;;;;11.45;43.34;93764.75;5075934;28;20032;-68
2021/01/06 11:42:20;;;;;;;14.98;4.35;;;;;;;11.46;43.15;93776.22;5103151;28;20435;-68
2021/01/06 11:45:07;;;;;;;13.73;3.28;;;;;;;11.46;43.35;93776.22;5079809;28;20024;-69
2021/01/06 11:47:46;;;;;;;6.60;2.22;;;;;;;11.56;39.82;93753.72;5090437;28;20038;-70
2021/01/06 11:50:37;;;;;;;9.18;3.60;;;;;;;11.62;41.67;93782.59;5078816;28;20035;-70
2021/01/06 11:53:17;;;;;;;12.68;3.65;;;;;;;11.69;41.97;93787.44;5078021;28;20036;-71
2021/01/06 11:56:20;;;;;;;8.38;3.25;;;;;;;11.81;41.06;93774.16;5088181;28;20440;-71
2021/01/06 11:58:45;;;;;;;;;;;;;;;11.88;41.32;93768.31;5081498;28;20032;-71
2021/01/06 12:01:49;;;;;;;6.60;2.75;;;;;;;11.93;41.21;93775.41;5077711;28;20057;-72
2021/01/06 12:04:34;;;;;;;10.70;3.35;;;;;;;12.10;41.92;93777.97;5073126;28;20048;-71